sensor_id;sensor_type;location;lat;lon;timestamp;P1;durP1;ratioP1;P2;durP2;ratioP2
9392;SDS011;4736;52.508;13.422;2022-09-17T00:01:02;4.40;;;4.00;;
9392;SDS011;4736;52.508;13.422;2022-09-17T00:04:05;6.03;;;4.03;;
9392;SDS011;4736;52.508;13.422;2022-09-17T00:07:10;8.00;;;3.77;;
9392;SDS011;4736;52.508;13.422;2022-09-17T00:10:13;7.07;;;4.13;;
9392;SDS011;4736;52.508;13.422;2022-09-17T00:13:16;7.80;;;3.60;;
9392;SDS011;4736;52.508;13.422;2022-09-17T00:16:23;3.87;;;3.30;;
9392;SDS011;4736;52.508;13.422;2022-09-17T00:19:28;5.53;;;3.63;;
9392;SDS011;4736;52.508;13.422;2022-09-17T00:22:32;5.23;;;3.37;;
9392;SDS011;4736;52.508;13.422;2022-09-17T00:25:36;4.23;;;3.80;;
9392;SDS011;4736;52.508;13.422;2022-09-17T00:28:39;6.57;;;3.83;;
9392;SDS011;4736;52.508;13.422;2022-09-17T00:31:45;5.50;;;3.83;;
9392;SDS011;4736;52.508;13.422;2022-09-17T00:34:48;8.90;;;3.97;;
9392;SDS011;4736;52.508;13.422;2022-09-17T00:37:53;5.70;;;3.50;;
9392;SDS011;4736;52.508;13.422;2022-09-17T00:40:56;6.23;;;3.90;;
9392;SDS011;4736;52.508;13.422;2022-09-17T00:44:00;8.17;;;3.83;;
9392;SDS011;4736;52.508;13.422;2022-09-17T00:47:25;5.60;;;3.60;;
9392;SDS011;4736;52.508;13.422;2022-09-17T00:50:33;10.63;;;4.10;;
9392;SDS011;4736;52.508;13.422;2022-09-17T00:53:40;4.60;;;4.30;;
9392;SDS011;4736;52.508;13.422;2022-09-17T00:56:43;7.13;;;4.03;;
9392;SDS011;4736;52.508;13.422;2022-09-17T00:59:47;6.87;;;4.07;;
9392;SDS011;4736;52.508;13.422;2022-09-17T01:02:50;8.03;;;3.70;;
9392;SDS011;4736;52.508;13.422;2022-09-17T01:05:55;8.60;;;3.70;;
9392;SDS011;4736;52.508;13.422;2022-09-17T01:09:11;7.07;;;3.50;;
9392;SDS011;4736;52.508;13.422;2022-09-17T01:12:30;9.07;;;3.90;;
9392;SDS011;4736;52.508;13.422;2022-09-17T01:15:44;5.60;;;4.17;;
9392;SDS011;4736;52.508;13.422;2022-09-17T01:18:56;9.17;;;3.93;;
9392;SDS011;4736;52.508;13.422;2022-09-17T01:22:09;4.93;;;3.60;;
9392;SDS011;4736;52.508;13.422;2022-09-17T01:25:22;7.37;;;3.90;;
9392;SDS011;4736;52.508;13.422;2022-09-17T01:28:33;3.73;;;3.43;;
9392;SDS011;4736;52.508;13.422;2022-09-17T01:31:46;3.97;;;3.60;;
9392;SDS011;4736;52.508;13.422;2022-09-17T01:34:54;5.03;;;3.80;;
9392;SDS011;4736;52.508;13.422;2022-09-17T01:38:04;4.60;;;3.50;;
9392;SDS011;4736;52.508;13.422;2022-09-17T01:41:17;4.07;;;3.67;;
9392;SDS011;4736;52.508;13.422;2022-09-17T01:44:28;7.23;;;3.70;;
9392;SDS011;4736;52.508;13.422;2022-09-17T01:47:38;5.70;;;3.27;;
9392;SDS011;4736;52.508;13.422;2022-09-17T01:50:47;3.87;;;3.43;;
9392;SDS011;4736;52.508;13.422;2022-09-17T01:53:54;5.27;;;3.63;;
9392;SDS011;4736;52.508;13.422;2022-09-17T01:57:01;5.10;;;3.93;;
9392;SDS011;4736;52.508;13.422;2022-09-17T02:00:09;4.57;;;3.77;;
9392;SDS011;4736;52.508;13.422;2022-09-17T02:03:18;6.03;;;4.00;;
9392;SDS011;4736;52.508;13.422;2022-09-17T02:06:24;5.40;;;3.53;;
9392;SDS011;4736;52.508;13.422;2022-09-17T02:09:32;8.20;;;3.97;;
9392;SDS011;4736;52.508;13.422;2022-09-17T02:12:40;4.07;;;3.67;;
9392;SDS011;4736;52.508;13.422;2022-09-17T02:15:48;5.70;;;4.33;;
9392;SDS011;4736;52.508;13.422;2022-09-17T02:19:01;9.20;;;4.40;;
9392;SDS011;4736;52.508;13.422;2022-09-17T02:22:09;8.27;;;4.10;;
9392;SDS011;4736;52.508;13.422;2022-09-17T02:25:21;7.03;;;4.07;;
9392;SDS011;4736;52.508;13.422;2022-09-17T02:28:31;9.20;;;4.17;;
9392;SDS011;4736;52.508;13.422;2022-09-17T02:31:42;6.53;;;3.93;;
9392;SDS011;4736;52.508;13.422;2022-09-17T02:34:46;9.00;;;4.17;;
9392;SDS011;4736;52.508;13.422;2022-09-17T02:37:49;7.67;;;4.10;;
9392;SDS011;4736;52.508;13.422;2022-09-17T02:40:54;5.10;;;3.87;;
9392;SDS011;4736;52.508;13.422;2022-09-17T02:44:03;8.37;;;4.57;;
9392;SDS011;4736;52.508;13.422;2022-09-17T02:47:23;5.37;;;4.13;;
9392;SDS011;4736;52.508;13.422;2022-09-17T02:50:51;4.43;;;4.10;;
9392;SDS011;4736;52.508;13.422;2022-09-17T02:54:11;8.27;;;4.30;;
9392;SDS011;4736;52.508;13.422;2022-09-17T02:57:22;8.90;;;4.67;;
9392;SDS011;4736;52.508;13.422;2022-09-17T03:00:31;6.80;;;4.50;;
9392;SDS011;4736;52.508;13.422;2022-09-17T03:03:36;8.57;;;4.40;;
9392;SDS011;4736;52.508;13.422;2022-09-17T03:06:45;5.90;;;4.30;;
9392;SDS011;4736;52.508;13.422;2022-09-17T03:09:48;7.67;;;4.37;;
9392;SDS011;4736;52.508;13.422;2022-09-17T03:12:51;10.97;;;4.47;;
9392;SDS011;4736;52.508;13.422;2022-09-17T03:15:55;9.30;;;4.93;;
9392;SDS011;4736;52.508;13.422;2022-09-17T03:18:58;6.73;;;4.03;;
9392;SDS011;4736;52.508;13.422;2022-09-17T03:22:02;6.40;;;4.50;;
9392;SDS011;4736;52.508;13.422;2022-09-17T03:25:06;5.43;;;4.10;;
9392;SDS011;4736;52.508;13.422;2022-09-17T03:28:09;8.43;;;3.90;;
9392;SDS011;4736;52.508;13.422;2022-09-17T03:31:12;7.43;;;4.10;;
9392;SDS011;4736;52.508;13.422;2022-09-17T03:34:15;8.47;;;4.07;;
9392;SDS011;4736;52.508;13.422;2022-09-17T03:37:20;7.67;;;4.07;;
9392;SDS011;4736;52.508;13.422;2022-09-17T03:40:23;5.70;;;4.10;;
9392;SDS011;4736;52.508;13.422;2022-09-17T03:43:26;4.57;;;4.00;;
9392;SDS011;4736;52.508;13.422;2022-09-17T03:46:29;7.10;;;4.00;;
9392;SDS011;4736;52.508;13.422;2022-09-17T03:49:32;7.73;;;3.80;;
9392;SDS011;4736;52.508;13.422;2022-09-17T03:52:36;3.20;;;3.00;;
9392;SDS011;4736;52.508;13.422;2022-09-17T03:55:39;6.40;;;3.60;;
9392;SDS011;4736;52.508;13.422;2022-09-17T03:58:42;6.63;;;3.80;;
9392;SDS011;4736;52.508;13.422;2022-09-17T04:01:45;5.23;;;3.60;;
9392;SDS011;4736;52.508;13.422;2022-09-17T04:04:48;6.93;;;4.13;;
9392;SDS011;4736;52.508;13.422;2022-09-17T04:07:53;5.47;;;3.43;;
9392;SDS011;4736;52.508;13.422;2022-09-17T04:10:56;12.50;;;4.50;;
9392;SDS011;4736;52.508;13.422;2022-09-17T04:13:58;6.17;;;3.50;;
9392;SDS011;4736;52.508;13.422;2022-09-17T04:17:01;7.33;;;3.77;;
9392;SDS011;4736;52.508;13.422;2022-09-17T04:20:04;11.47;;;4.00;;
9392;SDS011;4736;52.508;13.422;2022-09-17T04:23:09;10.60;;;3.90;;
9392;SDS011;4736;52.508;13.422;2022-09-17T04:26:13;7.73;;;4.10;;
9392;SDS011;4736;52.508;13.422;2022-09-17T04:29:16;5.17;;;3.53;;
9392;SDS011;4736;52.508;13.422;2022-09-17T04:32:18;8.50;;;3.83;;
9392;SDS011;4736;52.508;13.422;2022-09-17T04:35:21;6.83;;;3.90;;
9392;SDS011;4736;52.508;13.422;2022-09-17T04:38:26;11.27;;;3.77;;
9392;SDS011;4736;52.508;13.422;2022-09-17T04:41:28;12.43;;;4.03;;
9392;SDS011;4736;52.508;13.422;2022-09-17T04:44:31;7.33;;;4.07;;
9392;SDS011;4736;52.508;13.422;2022-09-17T04:47:36;4.70;;;3.40;;
9392;SDS011;4736;52.508;13.422;2022-09-17T04:50:39;6.60;;;4.07;;
9392;SDS011;4736;52.508;13.422;2022-09-17T04:53:44;8.97;;;4.10;;
9392;SDS011;4736;52.508;13.422;2022-09-17T04:56:47;6.00;;;3.87;;
9392;SDS011;4736;52.508;13.422;2022-09-17T04:59:49;8.63;;;3.70;;
9392;SDS011;4736;52.508;13.422;2022-09-17T05:02:53;7.67;;;3.67;;
9392;SDS011;4736;52.508;13.422;2022-09-17T05:05:56;7.47;;;3.67;;
9392;SDS011;4736;52.508;13.422;2022-09-17T05:09:00;8.57;;;3.93;;
9392;SDS011;4736;52.508;13.422;2022-09-17T05:12:03;6.33;;;3.70;;
9392;SDS011;4736;52.508;13.422;2022-09-17T05:15:07;4.53;;;3.50;;
9392;SDS011;4736;52.508;13.422;2022-09-17T05:18:10;5.57;;;3.37;;
9392;SDS011;4736;52.508;13.422;2022-09-17T05:21:13;8.77;;;4.20;;
9392;SDS011;4736;52.508;13.422;2022-09-17T05:24:17;11.97;;;3.90;;
9392;SDS011;4736;52.508;13.422;2022-09-17T05:27:20;8.40;;;4.03;;
9392;SDS011;4736;52.508;13.422;2022-09-17T05:30:23;9.23;;;3.80;;
9392;SDS011;4736;52.508;13.422;2022-09-17T05:33:26;6.97;;;4.30;;
9392;SDS011;4736;52.508;13.422;2022-09-17T05:36:29;7.37;;;3.97;;
9392;SDS011;4736;52.508;13.422;2022-09-17T05:39:33;18.33;;;4.23;;
9392;SDS011;4736;52.508;13.422;2022-09-17T05:42:36;8.37;;;3.87;;
9392;SDS011;4736;52.508;13.422;2022-09-17T05:45:39;4.13;;;3.77;;
9392;SDS011;4736;52.508;13.422;2022-09-17T05:48:42;5.60;;;3.93;;
9392;SDS011;4736;52.508;13.422;2022-09-17T05:51:45;7.53;;;3.63;;
9392;SDS011;4736;52.508;13.422;2022-09-17T05:54:50;8.03;;;4.20;;
9392;SDS011;4736;52.508;13.422;2022-09-17T05:57:52;5.30;;;3.83;;
9392;SDS011;4736;52.508;13.422;2022-09-17T06:00:55;6.17;;;3.80;;
9392;SDS011;4736;52.508;13.422;2022-09-17T06:04:03;9.07;;;4.00;;
9392;SDS011;4736;52.508;13.422;2022-09-17T06:07:06;4.57;;;3.43;;
9392;SDS011;4736;52.508;13.422;2022-09-17T06:10:11;9.10;;;4.40;;
9392;SDS011;4736;52.508;13.422;2022-09-17T06:13:14;10.13;;;3.93;;
9392;SDS011;4736;52.508;13.422;2022-09-17T06:16:17;10.70;;;4.93;;
9392;SDS011;4736;52.508;13.422;2022-09-17T06:19:20;11.30;;;5.13;;
9392;SDS011;4736;52.508;13.422;2022-09-17T06:22:22;10.60;;;5.10;;
9392;SDS011;4736;52.508;13.422;2022-09-17T06:25:27;13.37;;;5.20;;
9392;SDS011;4736;52.508;13.422;2022-09-17T06:28:32;12.90;;;4.67;;
9392;SDS011;4736;52.508;13.422;2022-09-17T06:31:41;14.77;;;4.87;;
9392;SDS011;4736;52.508;13.422;2022-09-17T06:34:45;15.47;;;5.30;;
9392;SDS011;4736;52.508;13.422;2022-09-17T06:37:49;13.77;;;5.30;;
9392;SDS011;4736;52.508;13.422;2022-09-17T06:40:53;13.67;;;5.07;;
9392;SDS011;4736;52.508;13.422;2022-09-17T06:43:56;14.77;;;5.50;;
9392;SDS011;4736;52.508;13.422;2022-09-17T06:46:59;14.40;;;5.77;;
9392;SDS011;4736;52.508;13.422;2022-09-17T06:50:02;12.40;;;5.20;;
9392;SDS011;4736;52.508;13.422;2022-09-17T06:53:06;16.10;;;5.33;;
9392;SDS011;4736;52.508;13.422;2022-09-17T06:56:11;14.40;;;5.20;;
9392;SDS011;4736;52.508;13.422;2022-09-17T06:59:14;13.50;;;5.43;;
9392;SDS011;4736;52.508;13.422;2022-09-17T07:02:17;16.07;;;5.17;;
9392;SDS011;4736;52.508;13.422;2022-09-17T07:05:20;11.37;;;5.30;;
9392;SDS011;4736;52.508;13.422;2022-09-17T07:08:23;10.20;;;5.37;;
9392;SDS011;4736;52.508;13.422;2022-09-17T07:11:29;15.80;;;5.33;;
9392;SDS011;4736;52.508;13.422;2022-09-17T07:14:32;13.20;;;5.40;;
9392;SDS011;4736;52.508;13.422;2022-09-17T07:17:35;15.37;;;5.10;;
9392;SDS011;4736;52.508;13.422;2022-09-17T07:20:39;20.13;;;5.57;;
9392;SDS011;4736;52.508;13.422;2022-09-17T07:23:42;9.50;;;4.80;;
9392;SDS011;4736;52.508;13.422;2022-09-17T07:26:47;20.40;;;5.20;;
9392;SDS011;4736;52.508;13.422;2022-09-17T07:29:51;14.50;;;4.87;;
9392;SDS011;4736;52.508;13.422;2022-09-17T07:32:54;13.87;;;5.33;;
9392;SDS011;4736;52.508;13.422;2022-09-17T07:35:57;11.57;;;4.27;;
9392;SDS011;4736;52.508;13.422;2022-09-17T07:39:01;15.37;;;4.60;;
9392;SDS011;4736;52.508;13.422;2022-09-17T07:42:06;12.87;;;4.97;;
9392;SDS011;4736;52.508;13.422;2022-09-17T07:45:09;10.73;;;4.80;;
9392;SDS011;4736;52.508;13.422;2022-09-17T07:48:12;14.87;;;4.43;;
9392;SDS011;4736;52.508;13.422;2022-09-17T07:51:15;8.20;;;4.20;;
9392;SDS011;4736;52.508;13.422;2022-09-17T07:54:19;12.87;;;4.27;;
9392;SDS011;4736;52.508;13.422;2022-09-17T07:57:24;12.70;;;4.30;;
9392;SDS011;4736;52.508;13.422;2022-09-17T08:00:27;15.73;;;4.83;;
9392;SDS011;4736;52.508;13.422;2022-09-17T08:03:30;9.63;;;4.10;;
9392;SDS011;4736;52.508;13.422;2022-09-17T08:06:35;15.50;;;4.23;;
9392;SDS011;4736;52.508;13.422;2022-09-17T08:09:40;10.10;;;4.10;;
9392;SDS011;4736;52.508;13.422;2022-09-17T08:12:44;13.23;;;4.40;;
9392;SDS011;4736;52.508;13.422;2022-09-17T08:15:47;9.50;;;3.93;;
9392;SDS011;4736;52.508;13.422;2022-09-17T08:18:52;9.93;;;4.33;;
9392;SDS011;4736;52.508;13.422;2022-09-17T08:21:56;12.57;;;4.47;;
9392;SDS011;4736;52.508;13.422;2022-09-17T08:24:59;16.23;;;4.70;;
9392;SDS011;4736;52.508;13.422;2022-09-17T08:28:05;8.47;;;3.60;;
9392;SDS011;4736;52.508;13.422;2022-09-17T08:31:08;10.80;;;4.57;;
9392;SDS011;4736;52.508;13.422;2022-09-17T08:34:11;10.90;;;3.70;;
9392;SDS011;4736;52.508;13.422;2022-09-17T08:37:14;13.73;;;4.77;;
9392;SDS011;4736;52.508;13.422;2022-09-17T08:40:18;8.20;;;3.70;;
9392;SDS011;4736;52.508;13.422;2022-09-17T08:43:24;11.23;;;3.63;;
9392;SDS011;4736;52.508;13.422;2022-09-17T08:46:30;7.17;;;3.67;;
9392;SDS011;4736;52.508;13.422;2022-09-17T08:49:35;7.07;;;4.07;;
9392;SDS011;4736;52.508;13.422;2022-09-17T08:52:55;11.30;;;4.03;;
9392;SDS011;4736;52.508;13.422;2022-09-17T08:56:09;8.97;;;3.70;;
9392;SDS011;4736;52.508;13.422;2022-09-17T08:59:18;11.57;;;4.27;;
9392;SDS011;4736;52.508;13.422;2022-09-17T09:02:33;13.60;;;3.97;;
9392;SDS011;4736;52.508;13.422;2022-09-17T09:05:49;18.00;;;4.40;;
9392;SDS011;4736;52.508;13.422;2022-09-17T09:08:54;9.70;;;3.57;;
9392;SDS011;4736;52.508;13.422;2022-09-17T09:12:04;9.03;;;3.87;;
9392;SDS011;4736;52.508;13.422;2022-09-17T09:15:20;6.53;;;3.30;;
9392;SDS011;4736;52.508;13.422;2022-09-17T09:18:32;11.67;;;3.33;;
9392;SDS011;4736;52.508;13.422;2022-09-17T09:21:38;11.37;;;4.40;;
9392;SDS011;4736;52.508;13.422;2022-09-17T09:24:50;7.80;;;3.40;;
9392;SDS011;4736;52.508;13.422;2022-09-17T09:28:07;7.30;;;3.70;;
9392;SDS011;4736;52.508;13.422;2022-09-17T09:34:59;12.00;;;3.43;;
9392;SDS011;4736;52.508;13.422;2022-09-17T09:38:05;10.50;;;3.63;;
9392;SDS011;4736;52.508;13.422;2022-09-17T09:41:16;6.53;;;3.50;;
9392;SDS011;4736;52.508;13.422;2022-09-17T09:44:24;9.30;;;3.57;;
9392;SDS011;4736;52.508;13.422;2022-09-17T09:47:36;9.87;;;3.10;;
9392;SDS011;4736;52.508;13.422;2022-09-17T09:50:53;8.13;;;3.57;;
9392;SDS011;4736;52.508;13.422;2022-09-17T09:54:12;8.27;;;3.53;;
9392;SDS011;4736;52.508;13.422;2022-09-17T09:57:30;6.40;;;3.30;;
9392;SDS011;4736;52.508;13.422;2022-09-17T10:00:41;7.73;;;3.77;;
9392;SDS011;4736;52.508;13.422;2022-09-17T10:03:46;8.67;;;3.43;;
9392;SDS011;4736;52.508;13.422;2022-09-17T10:06:50;12.33;;;4.07;;
9392;SDS011;4736;52.508;13.422;2022-09-17T10:09:59;7.07;;;3.80;;
9392;SDS011;4736;52.508;13.422;2022-09-17T10:13:10;6.53;;;3.60;;
9392;SDS011;4736;52.508;13.422;2022-09-17T10:16:16;8.90;;;3.43;;
9392;SDS011;4736;52.508;13.422;2022-09-17T10:19:21;13.87;;;3.37;;
9392;SDS011;4736;52.508;13.422;2022-09-17T10:22:28;8.40;;;3.80;;
9392;SDS011;4736;52.508;13.422;2022-09-17T10:25:33;10.00;;;3.30;;
9392;SDS011;4736;52.508;13.422;2022-09-17T10:28:43;8.90;;;3.00;;
9392;SDS011;4736;52.508;13.422;2022-09-17T10:31:50;8.27;;;3.40;;
9392;SDS011;4736;52.508;13.422;2022-09-17T10:35:00;8.17;;;3.13;;
9392;SDS011;4736;52.508;13.422;2022-09-17T10:38:24;8.13;;;2.90;;
9392;SDS011;4736;52.508;13.422;2022-09-17T10:41:35;9.87;;;3.47;;
9392;SDS011;4736;52.508;13.422;2022-09-17T10:44:38;8.10;;;3.47;;
9392;SDS011;4736;52.508;13.422;2022-09-17T10:47:52;9.77;;;3.57;;
9392;SDS011;4736;52.508;13.422;2022-09-17T10:50:58;6.00;;;3.53;;
9392;SDS011;4736;52.508;13.422;2022-09-17T10:54:07;10.53;;;3.80;;
9392;SDS011;4736;52.508;13.422;2022-09-17T10:57:26;12.10;;;3.20;;
9392;SDS011;4736;52.508;13.422;2022-09-17T11:00:41;8.83;;;3.20;;
9392;SDS011;4736;52.508;13.422;2022-09-17T11:04:03;10.97;;;3.10;;
9392;SDS011;4736;52.508;13.422;2022-09-17T11:10:46;7.00;;;2.97;;
9392;SDS011;4736;52.508;13.422;2022-09-17T11:13:53;5.97;;;2.87;;
9392;SDS011;4736;52.508;13.422;2022-09-17T11:17:10;7.10;;;3.33;;
9392;SDS011;4736;52.508;13.422;2022-09-17T11:20:21;7.43;;;3.67;;
9392;SDS011;4736;52.508;13.422;2022-09-17T11:23:45;5.17;;;2.93;;
9392;SDS011;4736;52.508;13.422;2022-09-17T11:27:10;6.17;;;3.00;;
9392;SDS011;4736;52.508;13.422;2022-09-17T11:30:29;4.93;;;2.47;;
9392;SDS011;4736;52.508;13.422;2022-09-17T11:33:50;3.73;;;2.90;;
9392;SDS011;4736;52.508;13.422;2022-09-17T11:37:08;2.60;;;2.40;;
9392;SDS011;4736;52.508;13.422;2022-09-17T11:40:16;5.67;;;2.60;;
9392;SDS011;4736;52.508;13.422;2022-09-17T11:43:24;6.53;;;2.97;;
9392;SDS011;4736;52.508;13.422;2022-09-17T11:46:29;4.30;;;2.60;;
9392;SDS011;4736;52.508;13.422;2022-09-17T11:49:40;6.67;;;3.10;;
9392;SDS011;4736;52.508;13.422;2022-09-17T11:52:51;5.87;;;2.40;;
9392;SDS011;4736;52.508;13.422;2022-09-17T11:56:07;3.23;;;2.37;;
9392;SDS011;4736;52.508;13.422;2022-09-17T11:59:17;6.27;;;2.60;;
9392;SDS011;4736;52.508;13.422;2022-09-17T12:02:29;3.23;;;2.33;;
9392;SDS011;4736;52.508;13.422;2022-09-17T12:05:45;2.53;;;2.10;;
9392;SDS011;4736;52.508;13.422;2022-09-17T12:08:52;6.53;;;2.40;;
9392;SDS011;4736;52.508;13.422;2022-09-17T12:12:02;2.87;;;2.43;;
9392;SDS011;4736;52.508;13.422;2022-09-17T12:15:12;3.20;;;2.20;;
9392;SDS011;4736;52.508;13.422;2022-09-17T12:18:24;2.53;;;2.30;;
9392;SDS011;4736;52.508;13.422;2022-09-17T12:21:34;3.47;;;2.60;;
9392;SDS011;4736;52.508;13.422;2022-09-17T12:24:40;3.07;;;2.50;;
9392;SDS011;4736;52.508;13.422;2022-09-17T12:27:47;3.13;;;2.57;;
9392;SDS011;4736;52.508;13.422;2022-09-17T12:30:56;5.03;;;2.70;;
9392;SDS011;4736;52.508;13.422;2022-09-17T12:34:12;4.03;;;2.47;;
9392;SDS011;4736;52.508;13.422;2022-09-17T12:37:30;3.17;;;2.83;;
9392;SDS011;4736;52.508;13.422;2022-09-17T12:40:39;3.80;;;2.43;;
9392;SDS011;4736;52.508;13.422;2022-09-17T12:47:33;3.07;;;2.77;;
9392;SDS011;4736;52.508;13.422;2022-09-17T12:50:51;4.87;;;2.90;;
9392;SDS011;4736;52.508;13.422;2022-09-17T12:54:06;2.73;;;2.50;;
9392;SDS011;4736;52.508;13.422;2022-09-17T12:57:20;4.50;;;2.30;;
9392;SDS011;4736;52.508;13.422;2022-09-17T13:00:35;3.00;;;2.47;;
9392;SDS011;4736;52.508;13.422;2022-09-17T13:03:43;4.03;;;2.40;;
9392;SDS011;4736;52.508;13.422;2022-09-17T13:06:56;2.70;;;2.50;;
9392;SDS011;4736;52.508;13.422;2022-09-17T13:10:31;6.13;;;2.67;;
9392;SDS011;4736;52.508;13.422;2022-09-17T13:13:42;3.40;;;2.30;;
9392;SDS011;4736;52.508;13.422;2022-09-17T13:16:53;2.83;;;2.10;;
9392;SDS011;4736;52.508;13.422;2022-09-17T13:20:02;4.73;;;2.17;;
9392;SDS011;4736;52.508;13.422;2022-09-17T13:23:14;2.63;;;2.07;;
9392;SDS011;4736;52.508;13.422;2022-09-17T13:26:18;3.33;;;1.97;;
9392;SDS011;4736;52.508;13.422;2022-09-17T13:33:00;2.27;;;2.07;;
9392;SDS011;4736;52.508;13.422;2022-09-17T13:36:03;4.03;;;2.30;;
9392;SDS011;4736;52.508;13.422;2022-09-17T13:42:52;2.47;;;2.27;;
9392;SDS011;4736;52.508;13.422;2022-09-17T13:46:10;2.70;;;2.50;;
9392;SDS011;4736;52.508;13.422;2022-09-17T13:49:17;2.57;;;2.27;;
9392;SDS011;4736;52.508;13.422;2022-09-17T13:52:27;3.27;;;2.23;;
9392;SDS011;4736;52.508;13.422;2022-09-17T13:55:46;7.20;;;2.20;;
9392;SDS011;4736;52.508;13.422;2022-09-17T13:58:51;3.73;;;2.50;;
9392;SDS011;4736;52.508;13.422;2022-09-17T14:01:55;6.90;;;2.77;;
9392;SDS011;4736;52.508;13.422;2022-09-17T14:08:45;6.53;;;2.87;;
9392;SDS011;4736;52.508;13.422;2022-09-17T14:11:51;3.37;;;2.20;;
9392;SDS011;4736;52.508;13.422;2022-09-17T14:14:54;4.57;;;2.40;;
9392;SDS011;4736;52.508;13.422;2022-09-17T14:17:57;4.63;;;2.47;;
9392;SDS011;4736;52.508;13.422;2022-09-17T14:21:03;4.23;;;2.40;;
9392;SDS011;4736;52.508;13.422;2022-09-17T14:24:14;4.87;;;2.13;;
9392;SDS011;4736;52.508;13.422;2022-09-17T14:27:42;4.87;;;2.40;;
9392;SDS011;4736;52.508;13.422;2022-09-17T14:30:51;6.77;;;2.50;;
9392;SDS011;4736;52.508;13.422;2022-09-17T14:33:54;6.33;;;2.50;;
9392;SDS011;4736;52.508;13.422;2022-09-17T14:36:57;4.30;;;2.20;;
9392;SDS011;4736;52.508;13.422;2022-09-17T14:40:04;4.00;;;2.60;;
9392;SDS011;4736;52.508;13.422;2022-09-17T14:43:14;4.43;;;2.63;;
9392;SDS011;4736;52.508;13.422;2022-09-17T14:46:22;5.10;;;2.43;;
9392;SDS011;4736;52.508;13.422;2022-09-17T14:49:27;3.83;;;2.10;;
9392;SDS011;4736;52.508;13.422;2022-09-17T14:52:32;2.17;;;2.07;;
9392;SDS011;4736;52.508;13.422;2022-09-17T14:55:38;2.57;;;1.90;;
9392;SDS011;4736;52.508;13.422;2022-09-17T14:58:46;3.13;;;1.80;;
9392;SDS011;4736;52.508;13.422;2022-09-17T15:01:52;2.10;;;1.90;;
9392;SDS011;4736;52.508;13.422;2022-09-17T15:04:55;1.80;;;1.80;;
9392;SDS011;4736;52.508;13.422;2022-09-17T15:08:05;2.30;;;1.70;;
9392;SDS011;4736;52.508;13.422;2022-09-17T15:11:13;2.03;;;1.50;;
9392;SDS011;4736;52.508;13.422;2022-09-17T15:14:19;1.67;;;1.67;;
9392;SDS011;4736;52.508;13.422;2022-09-17T15:17:24;1.53;;;1.43;;
9392;SDS011;4736;52.508;13.422;2022-09-17T15:20:28;1.40;;;1.40;;
9392;SDS011;4736;52.508;13.422;2022-09-17T15:23:33;1.70;;;1.57;;
9392;SDS011;4736;52.508;13.422;2022-09-17T15:26:39;2.00;;;1.40;;
9392;SDS011;4736;52.508;13.422;2022-09-17T15:29:46;2.27;;;1.67;;
9392;SDS011;4736;52.508;13.422;2022-09-17T15:32:52;2.67;;;1.50;;
9392;SDS011;4736;52.508;13.422;2022-09-17T15:35:58;1.40;;;1.40;;
9392;SDS011;4736;52.508;13.422;2022-09-17T15:42:30;2.23;;;1.63;;
9392;SDS011;4736;52.508;13.422;2022-09-17T15:45:34;1.70;;;1.70;;
9392;SDS011;4736;52.508;13.422;2022-09-17T15:48:39;1.93;;;1.80;;
9392;SDS011;4736;52.508;13.422;2022-09-17T15:51:42;4.47;;;1.67;;
9392;SDS011;4736;52.508;13.422;2022-09-17T15:54:45;3.97;;;1.97;;
9392;SDS011;4736;52.508;13.422;2022-09-17T15:57:47;3.77;;;2.20;;
9392;SDS011;4736;52.508;13.422;2022-09-17T16:01:07;2.73;;;1.80;;
9392;SDS011;4736;52.508;13.422;2022-09-17T16:04:50;2.60;;;2.47;;
9392;SDS011;4736;52.508;13.422;2022-09-17T16:08:32;3.73;;;2.80;;
9392;SDS011;4736;52.508;13.422;2022-09-17T16:11:36;2.83;;;2.10;;
9392;SDS011;4736;52.508;13.422;2022-09-17T16:14:47;2.20;;;2.00;;
9392;SDS011;4736;52.508;13.422;2022-09-17T16:17:53;2.30;;;2.00;;
9392;SDS011;4736;52.508;13.422;2022-09-17T16:20:57;1.97;;;1.87;;
9392;SDS011;4736;52.508;13.422;2022-09-17T16:24:00;4.07;;;2.00;;
9392;SDS011;4736;52.508;13.422;2022-09-17T16:27:03;2.70;;;2.40;;
9392;SDS011;4736;52.508;13.422;2022-09-17T16:30:12;2.07;;;1.97;;
9392;SDS011;4736;52.508;13.422;2022-09-17T16:33:18;2.47;;;2.30;;
9392;SDS011;4736;52.508;13.422;2022-09-17T16:36:21;2.17;;;2.00;;
9392;SDS011;4736;52.508;13.422;2022-09-17T16:39:24;1.87;;;1.80;;
9392;SDS011;4736;52.508;13.422;2022-09-17T16:42:28;2.10;;;2.00;;
9392;SDS011;4736;52.508;13.422;2022-09-17T16:45:32;2.20;;;2.10;;
9392;SDS011;4736;52.508;13.422;2022-09-17T16:48:36;2.10;;;2.00;;
9392;SDS011;4736;52.508;13.422;2022-09-17T16:51:39;2.67;;;2.10;;
9392;SDS011;4736;52.508;13.422;2022-09-17T16:54:42;2.10;;;2.10;;
9392;SDS011;4736;52.508;13.422;2022-09-17T16:57:45;2.20;;;2.00;;
9392;SDS011;4736;52.508;13.422;2022-09-17T17:00:48;3.13;;;2.90;;
9392;SDS011;4736;52.508;13.422;2022-09-17T17:03:53;2.30;;;2.20;;
9392;SDS011;4736;52.508;13.422;2022-09-17T17:06:59;2.40;;;2.23;;
9392;SDS011;4736;52.508;13.422;2022-09-17T17:10:02;3.20;;;2.30;;
9392;SDS011;4736;52.508;13.422;2022-09-17T17:13:06;2.33;;;2.13;;
9392;SDS011;4736;52.508;13.422;2022-09-17T17:16:09;2.27;;;1.90;;
9392;SDS011;4736;52.508;13.422;2022-09-17T17:19:14;1.90;;;1.90;;
9392;SDS011;4736;52.508;13.422;2022-09-17T17:22:17;3.20;;;1.90;;
9392;SDS011;4736;52.508;13.422;2022-09-17T17:25:20;3.60;;;2.57;;
9392;SDS011;4736;52.508;13.422;2022-09-17T17:28:24;2.50;;;2.30;;
9392;SDS011;4736;52.508;13.422;2022-09-17T17:31:26;3.30;;;2.20;;
9392;SDS011;4736;52.508;13.422;2022-09-17T17:34:31;2.30;;;2.20;;
9392;SDS011;4736;52.508;13.422;2022-09-17T17:37:34;2.57;;;2.20;;
9392;SDS011;4736;52.508;13.422;2022-09-17T17:40:37;2.47;;;2.37;;
9392;SDS011;4736;52.508;13.422;2022-09-17T17:43:40;2.10;;;1.93;;
9392;SDS011;4736;52.508;13.422;2022-09-17T17:46:43;2.80;;;2.60;;
9392;SDS011;4736;52.508;13.422;2022-09-17T17:49:47;2.40;;;2.20;;
9392;SDS011;4736;52.508;13.422;2022-09-17T17:52:52;4.10;;;3.20;;
9392;SDS011;4736;52.508;13.422;2022-09-17T17:55:55;2.70;;;2.50;;
9392;SDS011;4736;52.508;13.422;2022-09-17T17:58:59;2.47;;;2.37;;
9392;SDS011;4736;52.508;13.422;2022-09-17T18:02:02;3.40;;;2.50;;
9392;SDS011;4736;52.508;13.422;2022-09-17T18:05:07;2.27;;;2.17;;
9392;SDS011;4736;52.508;13.422;2022-09-17T18:08:11;2.30;;;2.13;;
9392;SDS011;4736;52.508;13.422;2022-09-17T18:11:14;2.30;;;2.20;;
9392;SDS011;4736;52.508;13.422;2022-09-17T18:14:17;3.23;;;2.57;;
9392;SDS011;4736;52.508;13.422;2022-09-17T18:17:20;2.50;;;2.30;;
9392;SDS011;4736;52.508;13.422;2022-09-17T18:20:24;2.20;;;2.10;;
9392;SDS011;4736;52.508;13.422;2022-09-17T18:23:27;2.60;;;2.23;;
9392;SDS011;4736;52.508;13.422;2022-09-17T18:26:31;2.40;;;2.30;;
9392;SDS011;4736;52.508;13.422;2022-09-17T18:29:34;2.60;;;2.40;;
9392;SDS011;4736;52.508;13.422;2022-09-17T18:32:37;2.90;;;2.50;;
9392;SDS011;4736;52.508;13.422;2022-09-17T18:35:41;5.50;;;3.23;;
9392;SDS011;4736;52.508;13.422;2022-09-17T18:38:44;2.97;;;2.43;;
9392;SDS011;4736;52.508;13.422;2022-09-17T18:41:47;2.40;;;2.20;;
9392;SDS011;4736;52.508;13.422;2022-09-17T18:44:50;3.33;;;3.03;;
9392;SDS011;4736;52.508;13.422;2022-09-17T18:47:53;3.30;;;3.10;;
9392;SDS011;4736;52.508;13.422;2022-09-17T18:50:57;2.67;;;2.50;;
9392;SDS011;4736;52.508;13.422;2022-09-17T18:54:01;3.07;;;2.77;;
9392;SDS011;4736;52.508;13.422;2022-09-17T18:57:05;2.70;;;2.50;;
9392;SDS011;4736;52.508;13.422;2022-09-17T19:00:08;3.83;;;2.97;;
9392;SDS011;4736;52.508;13.422;2022-09-17T19:03:12;2.97;;;2.77;;
9392;SDS011;4736;52.508;13.422;2022-09-17T19:06:16;2.87;;;2.77;;
9392;SDS011;4736;52.508;13.422;2022-09-17T19:09:19;2.50;;;2.40;;
9392;SDS011;4736;52.508;13.422;2022-09-17T19:12:22;2.93;;;2.47;;
9392;SDS011;4736;52.508;13.422;2022-09-17T19:15:25;3.23;;;2.57;;
9392;SDS011;4736;52.508;13.422;2022-09-17T19:18:28;2.73;;;2.53;;
9392;SDS011;4736;52.508;13.422;2022-09-17T19:21:34;4.20;;;2.47;;
9392;SDS011;4736;52.508;13.422;2022-09-17T19:24:37;3.10;;;2.77;;